sensor_id;sensor_type;location;lat;lon;timestamp;P1;durP1;ratioP1;P2;durP2;ratioP2
43435;SDS011;36399;51.444;-2.018;2022-07-11T00:02:14;1.90;;;1.03;;
43435;SDS011;36399;51.444;-2.018;2022-07-11T00:04:41;2.63;;;1.10;;
43435;SDS011;36399;51.444;-2.018;2022-07-11T00:07:13;2.38;;;1.00;;
43435;SDS011;36399;51.444;-2.018;2022-07-11T00:09:40;2.57;;;0.90;;
43435;SDS011;36399;51.444;-2.018;2022-07-11T00:12:07;2.73;;;1.40;;
43435;SDS011;36399;51.444;-2.018;2022-07-11T00:14:35;2.17;;;1.23;;
43435;SDS011;36399;51.444;-2.018;2022-07-11T00:17:01;3.50;;;1.27;;
43435;SDS011;36399;51.444;-2.018;2022-07-11T00:19:27;3.47;;;2.70;;
43435;SDS011;36399;51.444;-2.018;2022-07-11T00:21:53;1.60;;;1.00;;
43435;SDS011;36399;51.444;-2.018;2022-07-11T00:24:20;2.03;;;1.30;;
43435;SDS011;36399;51.444;-2.018;2022-07-11T00:26:47;5.20;;;1.80;;
43435;SDS011;36399;51.444;-2.018;2022-07-11T00:29:14;3.67;;;1.60;;
43435;SDS011;36399;51.444;-2.018;2022-07-11T00:31:41;2.47;;;1.27;;
43435;SDS011;36399;51.444;-2.018;2022-07-11T00:34:07;3.87;;;1.53;;
43435;SDS011;36399;51.444;-2.018;2022-07-11T00:36:34;3.13;;;1.37;;
43435;SDS011;36399;51.444;-2.018;2022-07-11T00:39:00;4.07;;;1.37;;
43435;SDS011;36399;51.444;-2.018;2022-07-11T00:41:26;4.07;;;1.67;;
43435;SDS011;36399;51.444;-2.018;2022-07-11T00:43:53;5.07;;;1.80;;
43435;SDS011;36399;51.444;-2.018;2022-07-11T00:46:25;3.83;;;1.70;;
43435;SDS011;36399;51.444;-2.018;2022-07-11T00:48:52;4.03;;;1.87;;
43435;SDS011;36399;51.444;-2.018;2022-07-11T00:51:19;4.53;;;2.00;;
43435;SDS011;36399;51.444;-2.018;2022-07-11T00:53:48;4.03;;;2.00;;
43435;SDS011;36399;51.444;-2.018;2022-07-11T00:56:18;3.47;;;1.63;;
43435;SDS011;36399;51.444;-2.018;2022-07-11T00:58:49;4.97;;;2.20;;
43435;SDS011;36399;51.444;-2.018;2022-07-11T01:01:16;3.80;;;1.80;;
43435;SDS011;36399;51.444;-2.018;2022-07-11T01:03:43;4.70;;;2.17;;
43435;SDS011;36399;51.444;-2.018;2022-07-11T01:06:09;4.27;;;1.70;;
43435;SDS011;36399;51.444;-2.018;2022-07-11T01:08:36;5.63;;;2.50;;
43435;SDS011;36399;51.444;-2.018;2022-07-11T01:11:03;4.27;;;2.40;;
43435;SDS011;36399;51.444;-2.018;2022-07-11T01:13:34;4.13;;;1.70;;
43435;SDS011;36399;51.444;-2.018;2022-07-11T01:18:32;3.23;;;1.80;;
43435;SDS011;36399;51.444;-2.018;2022-07-11T01:20:58;4.27;;;1.53;;
43435;SDS011;36399;51.444;-2.018;2022-07-11T01:23:25;3.47;;;1.40;;
43435;SDS011;36399;51.444;-2.018;2022-07-11T01:25:51;3.23;;;1.50;;
43435;SDS011;36399;51.444;-2.018;2022-07-11T01:28:17;3.60;;;1.60;;
43435;SDS011;36399;51.444;-2.018;2022-07-11T01:30:43;5.00;;;1.80;;
43435;SDS011;36399;51.444;-2.018;2022-07-11T01:33:09;5.43;;;2.10;;
43435;SDS011;36399;51.444;-2.018;2022-07-11T01:35:35;6.73;;;2.40;;
43435;SDS011;36399;51.444;-2.018;2022-07-11T01:38:01;4.60;;;2.23;;
43435;SDS011;36399;51.444;-2.018;2022-07-11T01:40:27;3.33;;;1.80;;
43435;SDS011;36399;51.444;-2.018;2022-07-11T01:42:53;5.03;;;2.00;;
43435;SDS011;36399;51.444;-2.018;2022-07-11T01:45:19;2.87;;;1.53;;
43435;SDS011;36399;51.444;-2.018;2022-07-11T01:47:44;3.43;;;2.20;;
43435;SDS011;36399;51.444;-2.018;2022-07-11T01:50:10;3.80;;;2.00;;
43435;SDS011;36399;51.444;-2.018;2022-07-11T01:52:36;4.47;;;2.00;;
43435;SDS011;36399;51.444;-2.018;2022-07-11T01:55:02;5.30;;;2.10;;
43435;SDS011;36399;51.444;-2.018;2022-07-11T01:57:29;5.37;;;2.53;;
43435;SDS011;36399;51.444;-2.018;2022-07-11T01:59:55;5.30;;;2.43;;
43435;SDS011;36399;51.444;-2.018;2022-07-11T02:02:21;3.60;;;1.93;;
43435;SDS011;36399;51.444;-2.018;2022-07-11T02:04:47;4.27;;;2.10;;
43435;SDS011;36399;51.444;-2.018;2022-07-11T02:07:12;3.60;;;1.77;;
43435;SDS011;36399;51.444;-2.018;2022-07-11T02:09:40;5.13;;;2.03;;
43435;SDS011;36399;51.444;-2.018;2022-07-11T02:12:06;3.40;;;2.00;;
43435;SDS011;36399;51.444;-2.018;2022-07-11T02:14:32;3.60;;;1.33;;
43435;SDS011;36399;51.444;-2.018;2022-07-11T02:16:58;3.70;;;1.73;;
43435;SDS011;36399;51.444;-2.018;2022-07-11T02:19:24;3.97;;;2.00;;
43435;SDS011;36399;51.444;-2.018;2022-07-11T02:21:50;2.90;;;1.60;;
43435;SDS011;36399;51.444;-2.018;2022-07-11T02:24:17;3.53;;;1.83;;
43435;SDS011;36399;51.444;-2.018;2022-07-11T02:26:44;3.20;;;1.43;;
43435;SDS011;36399;51.444;-2.018;2022-07-11T02:29:10;3.63;;;1.30;;
43435;SDS011;36399;51.444;-2.018;2022-07-11T02:31:35;3.00;;;1.37;;
43435;SDS011;36399;51.444;-2.018;2022-07-11T02:34:01;3.83;;;1.50;;
43435;SDS011;36399;51.444;-2.018;2022-07-11T02:36:28;2.73;;;1.37;;
43435;SDS011;36399;51.444;-2.018;2022-07-11T02:38:54;3.03;;;1.47;;
43435;SDS011;36399;51.444;-2.018;2022-07-11T02:41:20;2.97;;;1.17;;
43435;SDS011;36399;51.444;-2.018;2022-07-11T02:43:46;5.40;;;1.63;;
43435;SDS011;36399;51.444;-2.018;2022-07-11T02:46:12;3.17;;;1.20;;
43435;SDS011;36399;51.444;-2.018;2022-07-11T02:48:38;3.10;;;1.53;;
43435;SDS011;36399;51.444;-2.018;2022-07-11T02:51:04;3.03;;;1.53;;
43435;SDS011;36399;51.444;-2.018;2022-07-11T02:53:30;3.07;;;1.73;;
43435;SDS011;36399;51.444;-2.018;2022-07-11T02:55:56;3.03;;;1.50;;
43435;SDS011;36399;51.444;-2.018;2022-07-11T02:58:22;4.10;;;1.77;;
43435;SDS011;36399;51.444;-2.018;2022-07-11T03:00:48;2.77;;;1.43;;
43435;SDS011;36399;51.444;-2.018;2022-07-11T03:03:14;2.97;;;1.53;;
43435;SDS011;36399;51.444;-2.018;2022-07-11T03:05:40;3.13;;;1.40;;
43435;SDS011;36399;51.444;-2.018;2022-07-11T03:08:06;3.10;;;1.57;;
43435;SDS011;36399;51.444;-2.018;2022-07-11T03:10:32;3.53;;;1.70;;
43435;SDS011;36399;51.444;-2.018;2022-07-11T03:12:58;5.03;;;2.10;;
43435;SDS011;36399;51.444;-2.018;2022-07-11T03:15:24;3.73;;;1.70;;
43435;SDS011;36399;51.444;-2.018;2022-07-11T03:17:50;3.57;;;1.50;;
43435;SDS011;36399;51.444;-2.018;2022-07-11T03:20:16;4.27;;;1.73;;
43435;SDS011;36399;51.444;-2.018;2022-07-11T03:22:42;3.10;;;1.70;;
43435;SDS011;36399;51.444;-2.018;2022-07-11T03:25:08;5.97;;;2.23;;
43435;SDS011;36399;51.444;-2.018;2022-07-11T03:27:34;4.33;;;1.63;;
43435;SDS011;36399;51.444;-2.018;2022-07-11T03:30:00;5.03;;;1.60;;
43435;SDS011;36399;51.444;-2.018;2022-07-11T03:32:27;4.07;;;1.53;;
43435;SDS011;36399;51.444;-2.018;2022-07-11T03:34:53;3.27;;;1.67;;
43435;SDS011;36399;51.444;-2.018;2022-07-11T03:37:37;3.60;;;1.50;;
43435;SDS011;36399;51.444;-2.018;2022-07-11T03:40:03;3.77;;;1.77;;
43435;SDS011;36399;51.444;-2.018;2022-07-11T03:42:30;3.73;;;2.50;;
43435;SDS011;36399;51.444;-2.018;2022-07-11T03:44:56;2.97;;;1.50;;
43435;SDS011;36399;51.444;-2.018;2022-07-11T03:47:22;5.17;;;2.03;;
43435;SDS011;36399;51.444;-2.018;2022-07-11T03:49:48;4.50;;;1.97;;
43435;SDS011;36399;51.444;-2.018;2022-07-11T03:52:14;4.23;;;2.20;;
43435;SDS011;36399;51.444;-2.018;2022-07-11T03:54:40;4.00;;;2.10;;
43435;SDS011;36399;51.444;-2.018;2022-07-11T03:57:06;4.23;;;1.73;;
43435;SDS011;36399;51.444;-2.018;2022-07-11T03:59:32;4.17;;;2.20;;
43435;SDS011;36399;51.444;-2.018;2022-07-11T04:01:58;2.67;;;1.43;;
43435;SDS011;36399;51.444;-2.018;2022-07-11T04:04:24;2.03;;;1.20;;
43435;SDS011;36399;51.444;-2.018;2022-07-11T04:06:50;4.30;;;1.37;;
43435;SDS011;36399;51.444;-2.018;2022-07-11T04:09:16;3.47;;;1.73;;
43435;SDS011;36399;51.444;-2.018;2022-07-11T04:11:42;3.73;;;1.50;;
43435;SDS011;36399;51.444;-2.018;2022-07-11T04:14:08;4.77;;;1.70;;
43435;SDS011;36399;51.444;-2.018;2022-07-11T04:16:34;4.37;;;1.87;;
43435;SDS011;36399;51.444;-2.018;2022-07-11T04:19:00;3.67;;;1.73;;
43435;SDS011;36399;51.444;-2.018;2022-07-11T04:21:26;3.63;;;1.90;;
43435;SDS011;36399;51.444;-2.018;2022-07-11T04:23:52;6.13;;;2.13;;
43435;SDS011;36399;51.444;-2.018;2022-07-11T04:26:18;6.10;;;1.80;;
43435;SDS011;36399;51.444;-2.018;2022-07-11T04:28:44;6.50;;;2.87;;
43435;SDS011;36399;51.444;-2.018;2022-07-11T04:31:10;6.73;;;1.67;;
43435;SDS011;36399;51.444;-2.018;2022-07-11T04:33:36;3.23;;;1.60;;
43435;SDS011;36399;51.444;-2.018;2022-07-11T04:36:02;4.20;;;2.17;;
43435;SDS011;36399;51.444;-2.018;2022-07-11T04:38:29;6.17;;;2.40;;
43435;SDS011;36399;51.444;-2.018;2022-07-11T04:40:55;4.83;;;2.70;;
43435;SDS011;36399;51.444;-2.018;2022-07-11T04:43:21;5.87;;;2.80;;
43435;SDS011;36399;51.444;-2.018;2022-07-11T04:45:47;3.53;;;2.10;;
43435;SDS011;36399;51.444;-2.018;2022-07-11T04:48:13;4.23;;;2.10;;
43435;SDS011;36399;51.444;-2.018;2022-07-11T04:50:41;4.37;;;2.50;;
43435;SDS011;36399;51.444;-2.018;2022-07-11T04:53:09;3.73;;;2.20;;
43435;SDS011;36399;51.444;-2.018;2022-07-11T04:55:35;4.93;;;2.37;;
43435;SDS011;36399;51.444;-2.018;2022-07-11T04:58:02;4.40;;;2.50;;
43435;SDS011;36399;51.444;-2.018;2022-07-11T05:00:28;3.63;;;2.03;;
43435;SDS011;36399;51.444;-2.018;2022-07-11T05:02:54;5.47;;;2.37;;
43435;SDS011;36399;51.444;-2.018;2022-07-11T05:05:20;5.03;;;2.23;;
43435;SDS011;36399;51.444;-2.018;2022-07-11T05:07:49;5.07;;;2.30;;
43435;SDS011;36399;51.444;-2.018;2022-07-11T05:10:15;7.13;;;2.80;;
43435;SDS011;36399;51.444;-2.018;2022-07-11T05:12:41;4.83;;;2.60;;
43435;SDS011;36399;51.444;-2.018;2022-07-11T05:15:07;5.70;;;2.50;;
43435;SDS011;36399;51.444;-2.018;2022-07-11T05:17:34;5.07;;;2.37;;
43435;SDS011;36399;51.444;-2.018;2022-07-11T05:20:00;5.43;;;2.60;;
43435;SDS011;36399;51.444;-2.018;2022-07-11T05:22:27;4.70;;;2.77;;
43435;SDS011;36399;51.444;-2.018;2022-07-11T05:24:53;5.03;;;2.53;;
43435;SDS011;36399;51.444;-2.018;2022-07-11T05:27:21;6.13;;;3.47;;
43435;SDS011;36399;51.444;-2.018;2022-07-11T05:29:47;5.27;;;2.47;;
43435;SDS011;36399;51.444;-2.018;2022-07-11T05:32:13;4.43;;;2.60;;
43435;SDS011;36399;51.444;-2.018;2022-07-11T05:34:39;5.23;;;2.27;;
43435;SDS011;36399;51.444;-2.018;2022-07-11T05:37:06;4.30;;;2.10;;
43435;SDS011;36399;51.444;-2.018;2022-07-11T05:39:32;5.47;;;2.97;;
43435;SDS011;36399;51.444;-2.018;2022-07-11T05:41:58;4.50;;;2.50;;
43435;SDS011;36399;51.444;-2.018;2022-07-11T05:44:25;5.23;;;2.90;;
43435;SDS011;36399;51.444;-2.018;2022-07-11T05:46:51;4.73;;;2.53;;
43435;SDS011;36399;51.444;-2.018;2022-07-11T05:49:17;6.90;;;2.87;;
43435;SDS011;36399;51.444;-2.018;2022-07-11T05:51:43;4.63;;;2.63;;
43435;SDS011;36399;51.444;-2.018;2022-07-11T05:54:09;7.80;;;2.37;;
43435;SDS011;36399;51.444;-2.018;2022-07-11T05:56:35;4.77;;;1.97;;
43435;SDS011;36399;51.444;-2.018;2022-07-11T05:59:01;5.53;;;2.00;;
43435;SDS011;36399;51.444;-2.018;2022-07-11T06:01:27;5.70;;;2.60;;
43435;SDS011;36399;51.444;-2.018;2022-07-11T06:03:53;7.87;;;2.60;;
43435;SDS011;36399;51.444;-2.018;2022-07-11T06:06:19;5.00;;;2.87;;
43435;SDS011;36399;51.444;-2.018;2022-07-11T06:08:45;6.13;;;2.37;;
43435;SDS011;36399;51.444;-2.018;2022-07-11T06:11:12;4.00;;;2.20;;
43435;SDS011;36399;51.444;-2.018;2022-07-11T06:13:40;5.80;;;3.50;;
43435;SDS011;36399;51.444;-2.018;2022-07-11T06:16:07;8.47;;;3.00;;
43435;SDS011;36399;51.444;-2.018;2022-07-11T06:18:35;7.30;;;3.40;;
43435;SDS011;36399;51.444;-2.018;2022-07-11T06:21:01;5.97;;;3.10;;
43435;SDS011;36399;51.444;-2.018;2022-07-11T06:23:28;4.93;;;2.80;;
43435;SDS011;36399;51.444;-2.018;2022-07-11T06:25:54;4.27;;;2.27;;
43435;SDS011;36399;51.444;-2.018;2022-07-11T06:28:21;3.80;;;1.87;;
43435;SDS011;36399;51.444;-2.018;2022-07-11T06:30:47;7.77;;;3.10;;
43435;SDS011;36399;51.444;-2.018;2022-07-11T06:33:17;4.50;;;2.33;;
43435;SDS011;36399;51.444;-2.018;2022-07-11T06:35:44;6.03;;;2.50;;
43435;SDS011;36399;51.444;-2.018;2022-07-11T06:38:10;4.27;;;2.30;;
43435;SDS011;36399;51.444;-2.018;2022-07-11T06:40:40;5.40;;;2.40;;
43435;SDS011;36399;51.444;-2.018;2022-07-11T06:43:08;6.33;;;2.30;;
43435;SDS011;36399;51.444;-2.018;2022-07-11T06:45:35;5.07;;;1.93;;
43435;SDS011;36399;51.444;-2.018;2022-07-11T06:48:02;3.63;;;1.90;;
43435;SDS011;36399;51.444;-2.018;2022-07-11T06:50:28;5.77;;;2.17;;
43435;SDS011;36399;51.444;-2.018;2022-07-11T06:52:54;5.03;;;1.97;;
43435;SDS011;36399;51.444;-2.018;2022-07-11T06:55:20;2.27;;;1.33;;
43435;SDS011;36399;51.444;-2.018;2022-07-11T06:57:46;4.60;;;1.93;;
43435;SDS011;36399;51.444;-2.018;2022-07-11T07:00:12;3.47;;;1.90;;
43435;SDS011;36399;51.444;-2.018;2022-07-11T07:02:38;3.63;;;1.90;;
43435;SDS011;36399;51.444;-2.018;2022-07-11T07:05:05;4.47;;;1.87;;
43435;SDS011;36399;51.444;-2.018;2022-07-11T07:07:31;3.93;;;1.90;;
43435;SDS011;36399;51.444;-2.018;2022-07-11T07:09:57;3.08;;;1.83;;
43435;SDS011;36399;51.444;-2.018;2022-07-11T07:12:23;5.55;;;1.58;;
43435;SDS011;36399;51.444;-2.018;2022-07-11T07:14:49;4.07;;;1.88;;
43435;SDS011;36399;51.444;-2.018;2022-07-11T07:17:16;3.00;;;1.50;;
43435;SDS011;36399;51.444;-2.018;2022-07-11T07:19:42;5.25;;;1.58;;
43435;SDS011;36399;51.444;-2.018;2022-07-11T07:22:09;3.90;;;2.00;;
43435;SDS011;36399;51.444;-2.018;2022-07-11T07:24:35;5.00;;;1.85;;
43435;SDS011;36399;51.444;-2.018;2022-07-11T07:27:02;3.13;;;1.38;;
43435;SDS011;36399;51.444;-2.018;2022-07-11T07:29:29;5.32;;;2.10;;
43435;SDS011;36399;51.444;-2.018;2022-07-11T07:31:56;3.05;;;1.60;;
43435;SDS011;36399;51.444;-2.018;2022-07-11T07:34:22;4.35;;;1.67;;
43435;SDS011;36399;51.444;-2.018;2022-07-11T07:36:48;3.65;;;1.60;;
43435;SDS011;36399;51.444;-2.018;2022-07-11T07:39:14;2.88;;;1.40;;
43435;SDS011;36399;51.444;-2.018;2022-07-11T07:41:40;3.78;;;1.40;;
43435;SDS011;36399;51.444;-2.018;2022-07-11T07:44:06;3.17;;;1.20;;
43435;SDS011;36399;51.444;-2.018;2022-07-11T07:46:33;4.93;;;2.08;;
43435;SDS011;36399;51.444;-2.018;2022-07-11T07:48:59;3.35;;;1.52;;
43435;SDS011;36399;51.444;-2.018;2022-07-11T07:51:25;2.50;;;1.30;;
43435;SDS011;36399;51.444;-2.018;2022-07-11T07:53:52;2.78;;;1.30;;
43435;SDS011;36399;51.444;-2.018;2022-07-11T07:56:18;3.70;;;1.98;;
43435;SDS011;36399;51.444;-2.018;2022-07-11T07:58:48;2.25;;;0.98;;
43435;SDS011;36399;51.444;-2.018;2022-07-11T08:01:17;2.53;;;1.33;;
43435;SDS011;36399;51.444;-2.018;2022-07-11T08:04:05;1.95;;;1.00;;
43435;SDS011;36399;51.444;-2.018;2022-07-11T08:06:33;5.20;;;1.90;;
43435;SDS011;36399;51.444;-2.018;2022-07-11T08:09:02;2.67;;;1.10;;
43435;SDS011;36399;51.444;-2.018;2022-07-11T08:11:29;2.50;;;1.42;;
43435;SDS011;36399;51.444;-2.018;2022-07-11T08:13:56;2.88;;;1.30;;
43435;SDS011;36399;51.444;-2.018;2022-07-11T08:16:23;3.83;;;1.20;;
43435;SDS011;36399;51.444;-2.018;2022-07-11T08:18:49;2.25;;;1.13;;
43435;SDS011;36399;51.444;-2.018;2022-07-11T08:21:15;2.92;;;1.20;;
43435;SDS011;36399;51.444;-2.018;2022-07-11T08:23:41;3.58;;;1.75;;
43435;SDS011;36399;51.444;-2.018;2022-07-11T08:26:07;2.13;;;1.17;;
43435;SDS011;36399;51.444;-2.018;2022-07-11T08:28:33;2.78;;;1.40;;
43435;SDS011;36399;51.444;-2.018;2022-07-11T08:30:59;1.90;;;1.17;;
43435;SDS011;36399;51.444;-2.018;2022-07-11T08:33:25;2.80;;;1.30;;
43435;SDS011;36399;51.444;-2.018;2022-07-11T08:35:51;2.97;;;1.60;;
43435;SDS011;36399;51.444;-2.018;2022-07-11T08:38:17;2.40;;;0.98;;
43435;SDS011;36399;51.444;-2.018;2022-07-11T08:40:43;2.35;;;1.50;;
43435;SDS011;36399;51.444;-2.018;2022-07-11T08:43:15;1.75;;;0.88;;
43435;SDS011;36399;51.444;-2.018;2022-07-11T08:45:42;2.60;;;1.20;;
43435;SDS011;36399;51.444;-2.018;2022-07-11T08:48:09;2.25;;;1.05;;
43435;SDS011;36399;51.444;-2.018;2022-07-11T08:50:37;2.50;;;0.88;;
43435;SDS011;36399;51.444;-2.018;2022-07-11T08:53:03;2.50;;;1.17;;
43435;SDS011;36399;51.444;-2.018;2022-07-11T08:55:30;2.97;;;1.10;;
43435;SDS011;36399;51.444;-2.018;2022-07-11T08:57:56;2.55;;;1.15;;
43435;SDS011;36399;51.444;-2.018;2022-07-11T09:00:23;5.88;;;2.10;;
43435;SDS011;36399;51.444;-2.018;2022-07-11T09:02:49;3.25;;;1.10;;
43435;SDS011;36399;51.444;-2.018;2022-07-11T09:05:18;2.65;;;1.30;;
43435;SDS011;36399;51.444;-2.018;2022-07-11T09:07:45;1.60;;;0.93;;
43435;SDS011;36399;51.444;-2.018;2022-07-11T09:10:16;3.67;;;1.13;;
43435;SDS011;36399;51.444;-2.018;2022-07-11T09:13:03;1.77;;;1.10;;
43435;SDS011;36399;51.444;-2.018;2022-07-11T09:15:37;2.58;;;1.27;;
43435;SDS011;36399;51.444;-2.018;2022-07-11T09:20:57;2.47;;;1.13;;
43435;SDS011;36399;51.444;-2.018;2022-07-11T09:23:42;2.92;;;1.40;;
43435;SDS011;36399;51.444;-2.018;2022-07-11T09:26:29;2.28;;;1.17;;
43435;SDS011;36399;51.444;-2.018;2022-07-11T09:31:36;3.10;;;1.75;;
43435;SDS011;36399;51.444;-2.018;2022-07-11T09:39:12;2.80;;;1.70;;
43435;SDS011;36399;51.444;-2.018;2022-07-11T09:41:39;2.15;;;1.20;;
43435;SDS011;36399;51.444;-2.018;2022-07-11T09:44:15;2.75;;;1.10;;
43435;SDS011;36399;51.444;-2.018;2022-07-11T09:46:42;1.77;;;1.20;;
43435;SDS011;36399;51.444;-2.018;2022-07-11T09:49:12;4.25;;;1.50;;
43435;SDS011;36399;51.444;-2.018;2022-07-11T09:51:39;3.17;;;1.42;;
43435;SDS011;36399;51.444;-2.018;2022-07-11T09:54:06;2.42;;;1.30;;
43435;SDS011;36399;51.444;-2.018;2022-07-11T09:56:41;2.33;;;1.35;;
43435;SDS011;36399;51.444;-2.018;2022-07-11T09:59:11;2.42;;;1.13;;
43435;SDS011;36399;51.444;-2.018;2022-07-11T10:01:38;2.63;;;0.95;;
43435;SDS011;36399;51.444;-2.018;2022-07-11T10:04:06;2.65;;;1.00;;
43435;SDS011;36399;51.444;-2.018;2022-07-11T10:06:34;1.63;;;0.90;;
43435;SDS011;36399;51.444;-2.018;2022-07-11T10:09:02;2.38;;;1.20;;
43435;SDS011;36399;51.444;-2.018;2022-07-11T10:11:30;4.63;;;1.40;;
43435;SDS011;36399;51.444;-2.018;2022-07-11T10:13:58;3.75;;;1.02;;
43435;SDS011;36399;51.444;-2.018;2022-07-11T10:24:34;1.17;;;0.65;;
43435;SDS011;36399;51.444;-2.018;2022-07-11T10:30:13;2.05;;;1.00;;
43435;SDS011;36399;51.444;-2.018;2022-07-11T10:33:01;3.17;;;0.98;;
43435;SDS011;36399;51.444;-2.018;2022-07-11T10:35:32;1.30;;;0.77;;
43435;SDS011;36399;51.444;-2.018;2022-07-11T10:37:57;2.88;;;0.80;;
43435;SDS011;36399;51.444;-2.018;2022-07-11T10:45:58;3.42;;;1.02;;
43435;SDS011;36399;51.444;-2.018;2022-07-11T10:49:24;1.38;;;1.10;;
43435;SDS011;36399;51.444;-2.018;2022-07-11T11:02:00;1.67;;;0.77;;
43435;SDS011;36399;51.444;-2.018;2022-07-11T11:09:57;2.78;;;1.38;;
43435;SDS011;36399;51.444;-2.018;2022-07-11T11:23:34;2.35;;;0.93;;
43435;SDS011;36399;51.444;-2.018;2022-07-11T11:26:12;2.03;;;1.20;;
43435;SDS011;36399;51.444;-2.018;2022-07-11T11:28:56;2.80;;;1.05;;
43435;SDS011;36399;51.444;-2.018;2022-07-11T11:31:32;2.83;;;1.50;;
43435;SDS011;36399;51.444;-2.018;2022-07-11T11:34:02;2.33;;;1.40;;
43435;SDS011;36399;51.444;-2.018;2022-07-11T11:36:30;2.28;;;1.20;;
43435;SDS011;36399;51.444;-2.018;2022-07-11T11:38:56;3.80;;;1.20;;
43435;SDS011;36399;51.444;-2.018;2022-07-11T11:41:23;2.42;;;1.40;;
43435;SDS011;36399;51.444;-2.018;2022-07-11T11:43:51;3.03;;;1.50;;
43435;SDS011;36399;51.444;-2.018;2022-07-11T11:46:18;3.72;;;1.60;;
43435;SDS011;36399;51.444;-2.018;2022-07-11T11:48:49;4.10;;;2.10;;
43435;SDS011;36399;51.444;-2.018;2022-07-11T11:51:16;3.95;;;2.45;;
43435;SDS011;36399;51.444;-2.018;2022-07-11T11:53:44;4.15;;;2.40;;
43435;SDS011;36399;51.444;-2.018;2022-07-11T11:59:02;5.35;;;2.70;;
43435;SDS011;36399;51.444;-2.018;2022-07-11T12:01:31;6.97;;;2.88;;
43435;SDS011;36399;51.444;-2.018;2022-07-11T12:04:02;6.32;;;3.58;;
43435;SDS011;36399;51.444;-2.018;2022-07-11T12:06:33;4.15;;;2.25;;
43435;SDS011;36399;51.444;-2.018;2022-07-11T12:09:05;4.40;;;1.80;;
43435;SDS011;36399;51.444;-2.018;2022-07-11T12:11:37;3.15;;;1.38;;
43435;SDS011;36399;51.444;-2.018;2022-07-11T12:14:05;3.10;;;1.40;;
43435;SDS011;36399;51.444;-2.018;2022-07-11T12:16:33;3.28;;;2.00;;
43435;SDS011;36399;51.444;-2.018;2022-07-11T12:19:13;2.72;;;1.65;;
43435;SDS011;36399;51.444;-2.018;2022-07-11T12:21:43;3.25;;;1.50;;
43435;SDS011;36399;51.444;-2.018;2022-07-11T12:24:18;4.47;;;1.40;;
43435;SDS011;36399;51.444;-2.018;2022-07-11T12:26:46;2.95;;;1.50;;
43435;SDS011;36399;51.444;-2.018;2022-07-11T12:34:17;3.42;;;1.70;;
43435;SDS011;36399;51.444;-2.018;2022-07-11T12:36:47;2.17;;;1.17;;
43435;SDS011;36399;51.444;-2.018;2022-07-11T12:39:24;4.10;;;1.58;;
43435;SDS011;36399;51.444;-2.018;2022-07-11T12:41:52;2.65;;;1.40;;
43435;SDS011;36399;51.444;-2.018;2022-07-11T12:44:22;4.05;;;1.80;;
43435;SDS011;36399;51.444;-2.018;2022-07-11T12:47:16;2.85;;;2.22;;
43435;SDS011;36399;51.444;-2.018;2022-07-11T12:49:50;3.60;;;2.28;;
43435;SDS011;36399;51.444;-2.018;2022-07-11T12:52:17;2.83;;;1.60;;
43435;SDS011;36399;51.444;-2.018;2022-07-11T12:54:43;4.10;;;1.17;;
43435;SDS011;36399;51.444;-2.018;2022-07-11T12:57:09;4.70;;;2.13;;
43435;SDS011;36399;51.444;-2.018;2022-07-11T12:59:41;3.50;;;2.20;;
43435;SDS011;36399;51.444;-2.018;2022-07-11T13:02:10;6.53;;;3.97;;
43435;SDS011;36399;51.444;-2.018;2022-07-11T13:04:40;9.10;;;6.95;;
43435;SDS011;36399;51.444;-2.018;2022-07-11T13:10:15;6.43;;;5.13;;
43435;SDS011;36399;51.444;-2.018;2022-07-11T13:12:43;8.77;;;4.20;;
43435;SDS011;36399;51.444;-2.018;2022-07-11T13:15:11;6.35;;;3.80;;
43435;SDS011;36399;51.444;-2.018;2022-07-11T13:17:41;3.85;;;2.10;;
43435;SDS011;36399;51.444;-2.018;2022-07-11T13:20:27;2.17;;;1.58;;
43435;SDS011;36399;51.444;-2.018;2022-07-11T13:22:53;2.65;;;1.40;;
43435;SDS011;36399;51.444;-2.018;2022-07-11T13:25:21;3.78;;;1.50;;
43435;SDS011;36399;51.444;-2.018;2022-07-11T13:27:48;3.25;;;1.40;;
43435;SDS011;36399;51.444;-2.018;2022-07-11T13:30:16;4.45;;;1.73;;
43435;SDS011;36399;51.444;-2.018;2022-07-11T13:32:48;2.85;;;1.20;;
43435;SDS011;36399;51.444;-2.018;2022-07-11T13:35:16;3.13;;;1.70;;
43435;SDS011;36399;51.444;-2.018;2022-07-11T13:37:44;2.83;;;1.77;;
43435;SDS011;36399;51.444;-2.018;2022-07-11T13:40:12;2.85;;;1.50;;
43435;SDS011;36399;51.444;-2.018;2022-07-11T13:42:40;2.70;;;1.75;;
43435;SDS011;36399;51.444;-2.018;2022-07-11T13:45:08;2.67;;;1.55;;
43435;SDS011;36399;51.444;-2.018;2022-07-11T13:47:35;6.55;;;2.17;;
43435;SDS011;36399;51.444;-2.018;2022-07-11T13:50:01;3.42;;;1.48;;
43435;SDS011;36399;51.444;-2.018;2022-07-11T13:52:28;3.53;;;1.92;;
43435;SDS011;36399;51.444;-2.018;2022-07-11T13:54:55;4.47;;;3.17;;
43435;SDS011;36399;51.444;-2.018;2022-07-11T13:57:22;10.20;;;3.88;;
43435;SDS011;36399;51.444;-2.018;2022-07-11T13:59:48;3.80;;;2.50;;
43435;SDS011;36399;51.444;-2.018;2022-07-11T14:02:14;4.25;;;2.80;;
43435;SDS011;36399;51.444;-2.018;2022-07-11T14:04:41;5.35;;;2.80;;
43435;SDS011;36399;51.444;-2.018;2022-07-11T14:07:08;5.90;;;3.25;;
43435;SDS011;36399;51.444;-2.018;2022-07-11T14:09:34;4.20;;;3.35;;
43435;SDS011;36399;51.444;-2.018;2022-07-11T14:12:00;6.13;;;3.03;;
43435;SDS011;36399;51.444;-2.018;2022-07-11T14:14:27;3.53;;;1.90;;
43435;SDS011;36399;51.444;-2.018;2022-07-11T14:16:54;3.75;;;1.90;;
43435;SDS011;36399;51.444;-2.018;2022-07-11T14:19:20;4.28;;;2.38;;
43435;SDS011;36399;51.444;-2.018;2022-07-11T14:21:47;2.97;;;1.55;;
43435;SDS011;36399;51.444;-2.018;2022-07-11T14:24:13;2.30;;;1.08;;
43435;SDS011;36399;51.444;-2.018;2022-07-11T14:26:39;4.10;;;1.40;;
43435;SDS011;36399;51.444;-2.018;2022-07-11T14:29:05;2.63;;;1.27;;
43435;SDS011;36399;51.444;-2.018;2022-07-11T14:31:31;3.75;;;1.10;;
43435;SDS011;36399;51.444;-2.018;2022-07-11T14:33:58;3.75;;;2.00;;
43435;SDS011;36399;51.444;-2.018;2022-07-11T14:36:26;3.05;;;1.60;;
43435;SDS011;36399;51.444;-2.018;2022-07-11T14:38:52;3.97;;;1.13;;
43435;SDS011;36399;51.444;-2.018;2022-07-11T14:41:19;2.45;;;1.10;;
43435;SDS011;36399;51.444;-2.018;2022-07-11T14:43:45;2.35;;;1.00;;
43435;SDS011;36399;51.444;-2.018;2022-07-11T14:46:12;3.05;;;1.30;;
43435;SDS011;36399;51.444;-2.018;2022-07-11T14:48:42;1.60;;;0.90;;
43435;SDS011;36399;51.444;-2.018;2022-07-11T14:51:09;3.13;;;0.90;;
43435;SDS011;36399;51.444;-2.018;2022-07-11T14:53:36;2.63;;;0.88;;
43435;SDS011;36399;51.444;-2.018;2022-07-11T14:56:02;1.83;;;0.77;;
43435;SDS011;36399;51.444;-2.018;2022-07-11T14:58:28;2.03;;;0.80;;
43435;SDS011;36399;51.444;-2.018;2022-07-11T15:00:54;2.70;;;1.13;;
43435;SDS011;36399;51.444;-2.018;2022-07-11T15:03:21;2.55;;;0.75;;
43435;SDS011;36399;51.444;-2.018;2022-07-11T15:06:10;1.40;;;0.85;;
43435;SDS011;36399;51.444;-2.018;2022-07-11T15:08:40;2.83;;;0.93;;
43435;SDS011;36399;51.444;-2.018;2022-07-11T15:11:25;1.65;;;0.90;;
43435;SDS011;36399;51.444;-2.018;2022-07-11T15:14:11;3.67;;;1.30;;
43435;SDS011;36399;51.444;-2.018;2022-07-11T15:16:39;2.67;;;1.42;;
43435;SDS011;36399;51.444;-2.018;2022-07-11T15:19:05;2.05;;;0.82;;
43435;SDS011;36399;51.444;-2.018;2022-07-11T15:21:32;2.13;;;1.15;;
43435;SDS011;36399;51.444;-2.018;2022-07-11T15:23:59;2.63;;;0.90;;
43435;SDS011;36399;51.444;-2.018;2022-07-11T15:26:26;0.80;;;0.60;;
43435;SDS011;36399;51.444;-2.018;2022-07-11T15:28:52;2.10;;;0.95;;
43435;SDS011;36399;51.444;-2.018;2022-07-11T15:31:19;1.88;;;0.95;;
43435;SDS011;36399;51.444;-2.018;2022-07-11T15:33:45;2.55;;;1.08;;
43435;SDS011;36399;51.444;-2.018;2022-07-11T15:36:13;1.88;;;0.90;;
43435;SDS011;36399;51.444;-2.018;2022-07-11T15:38:41;1.80;;;1.00;;
43435;SDS011;36399;51.444;-2.018;2022-07-11T15:41:13;2.97;;;1.20;;
43435;SDS011;36399;51.444;-2.018;2022-07-11T15:43:40;1.67;;;0.82;;
43435;SDS011;36399;51.444;-2.018;2022-07-11T15:46:06;1.35;;;0.73;;